createdAt,value
2022-08-17T00:00:42.814Z,20.00
2022-08-17T00:03:02.840Z,20.00
2022-08-17T00:05:33.180Z,19.90
2022-08-17T00:08:00.996Z,19.90
2022-08-17T00:10:31.175Z,19.90
2022-08-17T00:13:00.616Z,19.90
2022-08-17T00:15:28.403Z,19.90
2022-08-17T00:17:56.128Z,19.90
2022-08-17T00:20:30.657Z,19.80
2022-08-17T00:23:05.653Z,19.80
2022-08-17T00:25:35.906Z,19.80
2022-08-17T00:28:04.095Z,19.70
2022-08-17T00:30:52.868Z,19.70
2022-08-17T00:33:23.887Z,19.70
2022-08-17T00:35:52.569Z,19.70
2022-08-17T00:38:20.745Z,19.60
2022-08-17T00:40:52.625Z,19.50
2022-08-17T00:43:29.962Z,19.50
2022-08-17T00:45:58.187Z,19.40
2022-08-17T00:48:30.146Z,19.40
2022-08-17T00:51:03.606Z,19.30
2022-08-17T00:53:36.783Z,19.40
2022-08-17T00:56:08.836Z,19.40
2022-08-17T00:58:37.436Z,19.40
2022-08-17T01:01:06.561Z,19.30
2022-08-17T01:03:35.979Z,19.30
2022-08-17T01:06:05.567Z,19.30
2022-08-17T01:08:33.884Z,19.20
2022-08-17T01:11:02.989Z,19.20
2022-08-17T01:13:40.636Z,19.20
2022-08-17T01:16:16.428Z,19.20
2022-08-17T01:18:46.287Z,19.10
2022-08-17T01:21:21.955Z,19.20
2022-08-17T01:23:51.106Z,19.10
2022-08-17T01:26:19.401Z,19.20
2022-08-17T01:28:53.722Z,19.20
2022-08-17T01:31:25.299Z,19.10
2022-08-17T01:33:53.547Z,19.10
2022-08-17T01:36:21.410Z,19.10
2022-08-17T01:38:50.932Z,19.10
2022-08-17T01:41:21.850Z,19.10
2022-08-17T01:43:54.170Z,19.10
2022-08-17T01:46:25.857Z,19.20
2022-08-17T01:48:54.838Z,19.20
2022-08-17T01:51:22.615Z,19.30
2022-08-17T01:53:54.884Z,19.30
2022-08-17T01:56:24.394Z,19.40
2022-08-17T01:58:53.350Z,19.40
2022-08-17T02:01:25.649Z,19.40
2022-08-17T02:04:00.797Z,19.40
2022-08-17T02:06:31.327Z,19.40
2022-08-17T02:09:01.773Z,19.40
2022-08-17T02:11:33.749Z,19.50
2022-08-17T02:14:05.023Z,19.60
2022-08-17T02:16:37.776Z,19.70
2022-08-17T02:19:08.010Z,19.80
2022-08-17T02:21:36.231Z,19.80
2022-08-17T02:24:07.752Z,19.90
2022-08-17T02:26:35.626Z,19.80
2022-08-17T02:29:03.914Z,19.80
2022-08-17T02:31:32.084Z,20.00
2022-08-17T02:34:03.984Z,20.00
2022-08-17T02:36:33.852Z,19.80
2022-08-17T02:39:02.406Z,19.70
2022-08-17T02:41:31.446Z,19.60
2022-08-17T02:43:59.471Z,19.60
2022-08-17T02:46:27.762Z,19.70
2022-08-17T02:48:55.606Z,19.80
2022-08-17T02:51:23.703Z,19.90
2022-08-17T02:53:51.558Z,20.00
2022-08-17T02:56:19.297Z,20.00
2022-08-17T02:58:48.447Z,20.20
2022-08-17T03:01:16.381Z,20.30
2022-08-17T03:03:44.203Z,20.30
2022-08-17T03:06:12.278Z,20.20
2022-08-17T03:08:40.462Z,20.00
2022-08-17T03:11:08.201Z,20.00
2022-08-17T03:13:35.939Z,19.80
2022-08-17T03:16:05.284Z,19.90
2022-08-17T03:18:33.267Z,20.00
2022-08-17T03:21:04.155Z,20.00
2022-08-17T03:23:33.575Z,20.10
2022-08-17T03:26:01.786Z,20.10
2022-08-17T03:28:30.002Z,20.10
2022-08-17T03:30:57.769Z,20.20
2022-08-17T03:33:26.851Z,20.30
2022-08-17T03:35:54.663Z,20.40
2022-08-17T03:38:22.426Z,20.40
2022-08-17T03:41:05.563Z,20.40
2022-08-17T03:43:34.604Z,20.50
2022-08-17T03:46:27.644Z,20.60
2022-08-17T03:49:15.625Z,20.60
2022-08-17T03:51:57.333Z,20.70
2022-08-17T03:54:39.078Z,20.70
2022-08-17T03:57:09.060Z,20.70
2022-08-17T03:59:38.295Z,20.90
2022-08-17T04:02:09.798Z,21.00
2022-08-17T04:04:39.336Z,21.00
2022-08-17T04:07:08.270Z,21.00
2022-08-17T04:09:37.367Z,21.00
2022-08-17T04:12:06.296Z,21.10
2022-08-17T04:14:39.337Z,21.10
2022-08-17T04:17:23.272Z,21.20
2022-08-17T04:19:52.827Z,21.20
2022-08-17T04:22:32.680Z,21.20
2022-08-17T04:25:05.987Z,21.00
2022-08-17T04:27:33.863Z,21.00
2022-08-17T04:30:01.715Z,21.00
2022-08-17T04:33:04.769Z,21.00
2022-08-17T04:35:22.455Z,21.00
2022-08-17T04:37:51.195Z,21.00
2022-08-17T04:40:34.796Z,20.70
2022-08-17T04:43:03.818Z,20.70
2022-08-17T04:45:32.643Z,20.80
2022-08-17T04:48:01.197Z,20.90
2022-08-17T04:50:30.384Z,20.70
2022-08-17T04:52:58.506Z,20.70
2022-08-17T04:55:26.406Z,20.80
2022-08-17T04:57:54.179Z,20.80
2022-08-17T05:00:22.126Z,20.90
2022-08-17T05:02:51.205Z,21.00
2022-08-17T05:05:20.807Z,21.00
2022-08-17T05:07:52.333Z,21.10
2022-08-17T05:10:21.078Z,21.10
2022-08-17T05:12:57.529Z,21.10
2022-08-17T05:15:25.412Z,21.10
2022-08-17T05:17:53.142Z,21.20
2022-08-17T05:20:21.782Z,21.40
2022-08-17T05:22:53.071Z,21.40
2022-08-17T05:25:25.522Z,21.60
2022-08-17T05:27:54.458Z,21.80
2022-08-17T05:30:25.852Z,21.90
2022-08-17T05:32:55.313Z,22.00
2022-08-17T05:35:23.833Z,22.00
2022-08-17T05:37:57.935Z,21.90
2022-08-17T05:40:26.500Z,21.90
2022-08-17T05:43:10.547Z,22.00
2022-08-17T05:45:55.474Z,22.20
2022-08-17T05:48:39.051Z,22.40
2022-08-17T05:51:27.027Z,22.50
2022-08-17T05:54:06.183Z,22.70
2022-08-17T05:56:51.204Z,22.80
2022-08-17T05:59:29.264Z,23.10
2022-08-17T06:02:06.315Z,23.50
2022-08-17T06:04:45.331Z,23.50
2022-08-17T06:07:21.572Z,23.60
2022-08-17T06:10:01.184Z,23.60
2022-08-17T06:12:40.752Z,23.50
2022-08-17T06:15:24.491Z,23.40
2022-08-17T06:17:56.055Z,23.10
2022-08-17T06:20:26.112Z,22.90
2022-08-17T06:23:03.583Z,22.60
2022-08-17T06:25:40.372Z,22.30
2022-08-17T06:28:14.214Z,22.10
2022-08-17T06:31:00.698Z,22.00
2022-08-17T06:33:36.121Z,21.30
2022-08-17T06:36:23.367Z,21.40
2022-08-17T06:39:02.925Z,21.40
2022-08-17T06:41:42.811Z,21.40
2022-08-17T06:44:43.402Z,21.40
2022-08-17T06:47:12.392Z,21.50
2022-08-17T06:49:50.531Z,21.60
2022-08-17T06:52:45.336Z,21.50
2022-08-17T06:55:18.911Z,21.10
2022-08-17T06:57:52.140Z,20.80
2022-08-17T07:00:23.740Z,21.00
2022-08-17T07:02:57.020Z,21.10
2022-08-17T07:05:28.830Z,21.30
2022-08-17T07:08:02.341Z,21.50
2022-08-17T07:10:36.280Z,21.60
2022-08-17T07:13:18.071Z,21.70
2022-08-17T07:15:48.164Z,21.90
2022-08-17T07:18:16.236Z,22.10
2022-08-17T07:20:49.793Z,22.30
2022-08-17T07:23:26.610Z,22.50
2022-08-17T07:26:05.407Z,22.70
2022-08-17T07:28:36.234Z,22.70
2022-08-17T07:31:06.798Z,22.80
2022-08-17T07:33:36.676Z,22.70
2022-08-17T07:36:05.576Z,22.80
2022-08-17T07:38:35.583Z,22.90
2022-08-17T07:41:06.616Z,23.00
2022-08-17T07:43:46.356Z,23.00
2022-08-17T07:46:31.678Z,23.00
2022-08-17T07:49:18.891Z,23.00
2022-08-17T07:51:57.814Z,22.80
2022-08-17T07:54:32.159Z,22.40
2022-08-17T07:57:03.269Z,22.40
2022-08-17T07:59:34.295Z,22.40
2022-08-17T08:02:18.650Z,22.30
2022-08-17T08:05:03.085Z,22.20
2022-08-17T08:07:39.284Z,22.10
2022-08-17T08:10:11.838Z,22.00
2022-08-17T08:12:42.210Z,21.90
2022-08-17T08:15:17.595Z,21.90
2022-08-17T08:17:51.801Z,21.90
2022-08-17T08:20:51.741Z,21.80
2022-08-17T08:23:35.855Z,21.60
2022-08-17T08:26:18.570Z,21.70
2022-08-17T08:28:54.474Z,21.80
2022-08-17T08:31:45.347Z,21.90
2022-08-17T08:35:00.591Z,21.90
2022-08-17T08:37:30.334Z,21.80
2022-08-17T08:40:11.381Z,21.70
2022-08-17T08:42:50.545Z,21.40
2022-08-17T08:45:29.149Z,21.40
2022-08-17T08:48:22.714Z,21.50
2022-08-17T08:50:59.017Z,21.60
2022-08-17T08:53:36.231Z,21.70
2022-08-17T08:56:12.224Z,21.70
2022-08-17T08:58:50.390Z,21.80
2022-08-17T09:01:28.306Z,21.80
2022-08-17T09:04:25.229Z,21.50
2022-08-17T09:07:03.544Z,21.30
2022-08-17T09:09:39.731Z,21.10
2022-08-17T09:12:16.677Z,21.00
2022-08-17T09:14:57.705Z,20.80
2022-08-17T09:17:46.592Z,20.70
2022-08-17T09:20:27.502Z,20.80
2022-08-17T09:23:03.805Z,20.80
2022-08-17T09:25:36.095Z,20.90
2022-08-17T09:28:07.390Z,21.10
2022-08-17T09:30:41.928Z,21.30
2022-08-17T09:33:12.330Z,21.50
2022-08-17T09:35:48.648Z,21.60
2022-08-17T09:38:29.130Z,21.60
2022-08-17T09:41:09.203Z,21.70
2022-08-17T09:43:43.646Z,21.70
2022-08-17T09:46:20.353Z,21.80
2022-08-17T09:48:56.108Z,21.80
2022-08-17T09:51:33.394Z,21.90
2022-08-17T09:54:20.950Z,21.90
2022-08-17T09:57:28.103Z,22.00
2022-08-17T10:00:00.504Z,22.30
2022-08-17T10:03:22.067Z,22.80
2022-08-17T10:05:56.982Z,24.00
2022-08-17T10:08:34.908Z,24.60
2022-08-17T10:11:33.389Z,24.90
2022-08-17T10:14:36.263Z,25.00
2022-08-17T10:17:04.180Z,25.30
2022-08-17T10:19:38.958Z,25.30
2022-08-17T10:22:34.586Z,25.30
2022-08-17T10:25:22.846Z,25.50
2022-08-17T10:27:56.695Z,25.40
2022-08-17T10:30:27.792Z,25.30
2022-08-17T10:33:02.679Z,25.40
2022-08-17T10:35:37.886Z,25.60
2022-08-17T10:38:26.432Z,25.70
2022-08-17T10:40:59.103Z,25.80
2022-08-17T10:43:55.728Z,25.60
2022-08-17T10:46:51.981Z,25.50
2022-08-17T10:49:26.693Z,25.50
2022-08-17T10:51:58.081Z,25.40
2022-08-17T10:54:42.302Z,25.10
2022-08-17T10:57:39.899Z,25.10
2022-08-17T11:00:14.540Z,25.10
2022-08-17T11:02:50.829Z,25.50
2022-08-17T11:05:44.063Z,25.60
2022-08-17T11:08:37.537Z,25.90
2022-08-17T11:11:19.677Z,26.00
2022-08-17T11:14:01.290Z,26.00
2022-08-17T11:16:39.737Z,26.40
2022-08-17T11:19:38.176Z,26.50
2022-08-17T11:22:31.293Z,26.30
2022-08-17T11:25:15.941Z,25.90
2022-08-17T11:27:44.947Z,26.30
2022-08-17T11:30:14.925Z,26.80
2022-08-17T11:32:54.651Z,26.70
2022-08-17T11:35:37.120Z,26.30
2022-08-17T11:38:21.529Z,26.50
2022-08-17T11:41:09.927Z,26.70
2022-08-17T11:44:02.069Z,26.80
2022-08-17T11:46:56.506Z,26.60
2022-08-17T11:49:46.529Z,26.60
2022-08-17T11:52:32.225Z,26.60
2022-08-17T11:55:17.701Z,26.70
2022-08-17T11:58:01.262Z,26.80
2022-08-17T12:00:54.650Z,26.70
2022-08-17T12:03:42.394Z,26.50
2022-08-17T12:06:31.963Z,26.80
2022-08-17T12:09:06.714Z,27.70
2022-08-17T12:11:58.767Z,28.50
2022-08-17T12:15:07.911Z,29.10
2022-08-17T12:17:52.057Z,29.80
2022-08-17T12:20:27.741Z,30.30
2022-08-17T12:23:09.015Z,31.00
2022-08-17T12:25:42.338Z,32.40
2022-08-17T12:28:23.058Z,33.00
2022-08-17T12:30:53.483Z,33.70
2022-08-17T12:33:28.112Z,33.60
2022-08-17T12:35:59.972Z,33.50
2022-08-17T12:38:32.361Z,33.00
2022-08-17T12:41:23.153Z,32.50
2022-08-17T12:44:02.193Z,32.10
2022-08-17T12:46:34.770Z,31.60
2022-08-17T12:49:22.510Z,31.20
2022-08-17T12:51:52.593Z,30.90
2022-08-17T12:54:27.058Z,30.70
2022-08-17T12:56:57.281Z,30.50
2022-08-17T12:59:29.835Z,30.20
2022-08-17T13:02:01.010Z,30.20
2022-08-17T13:04:29.909Z,30.30
2022-08-17T13:07:00.426Z,30.20
2022-08-17T13:09:33.629Z,30.10
2022-08-17T13:12:08.417Z,30.30
2022-08-17T13:14:36.338Z,30.30
2022-08-17T13:17:12.707Z,30.30
2022-08-17T13:19:50.428Z,30.10
2022-08-17T13:22:25.140Z,30.20
2022-08-17T13:24:55.950Z,30.10
2022-08-17T13:27:26.915Z,30.10
2022-08-17T13:29:57.929Z,30.00
2022-08-17T13:32:37.078Z,30.10
2022-08-17T13:35:32.382Z,30.10
2022-08-17T13:38:10.188Z,30.10
2022-08-17T13:40:42.665Z,30.10
2022-08-17T13:43:11.704Z,30.20
2022-08-17T13:45:50.254Z,30.20
2022-08-17T13:48:25.473Z,30.20
2022-08-17T13:51:14.602Z,30.20
2022-08-17T13:53:57.481Z,30.40
2022-08-17T13:56:37.019Z,30.40
2022-08-17T13:59:10.904Z,30.30
2022-08-17T14:01:41.665Z,30.30
2022-08-17T14:04:13.583Z,30.30
2022-08-17T14:06:52.905Z,30.40
2022-08-17T14:09:24.122Z,30.50
2022-08-17T14:11:53.913Z,30.60
2022-08-17T14:14:23.389Z,30.60
2022-08-17T14:16:51.746Z,30.60
2022-08-17T14:19:22.004Z,30.60
2022-08-17T14:21:50.315Z,30.70
2022-08-17T14:24:26.142Z,30.60
2022-08-17T14:26:55.171Z,30.40
2022-08-17T14:29:24.805Z,30.60
2022-08-17T14:31:54.122Z,30.80
2022-08-17T14:34:24.852Z,30.90
2022-08-17T14:36:53.475Z,31.00
2022-08-17T14:39:21.439Z,31.10
2022-08-17T14:41:49.858Z,31.10
2022-08-17T14:44:21.188Z,31.10
2022-08-17T14:46:53.726Z,31.20
2022-08-17T14:49:21.511Z,31.30
2022-08-17T14:51:51.135Z,31.10
2022-08-17T14:54:32.693Z,31.20
2022-08-17T14:57:23.872Z,31.30
2022-08-17T14:59:54.559Z,31.20
2022-08-17T15:02:29.726Z,30.80
2022-08-17T15:05:01.582Z,30.80
2022-08-17T15:07:32.155Z,30.90
2022-08-17T15:10:02.161Z,31.00
2022-08-17T15:12:34.355Z,31.00
2022-08-17T15:15:04.194Z,31.00
2022-08-17T15:17:43.954Z,31.00
2022-08-17T15:20:15.944Z,31.00
2022-08-17T15:22:46.529Z,31.00
2022-08-17T15:25:14.881Z,31.10
2022-08-17T15:27:42.766Z,31.10
2022-08-17T15:30:11.638Z,30.80
2022-08-17T15:32:41.249Z,30.80
2022-08-17T15:35:19.151Z,30.70
2022-08-17T15:37:56.876Z,30.70
2022-08-17T15:40:24.920Z,30.70
2022-08-17T15:42:52.756Z,30.70
2022-08-17T15:45:24.415Z,30.60
2022-08-17T15:47:52.952Z,30.60
2022-08-17T15:50:20.944Z,30.50
2022-08-17T15:52:57.755Z,30.40
2022-08-17T15:55:32.063Z,30.40
2022-08-17T15:57:59.962Z,30.40
2022-08-17T16:00:29.191Z,30.40
2022-08-17T16:03:46.395Z,30.30
2022-08-17T16:05:47.503Z,30.20
2022-08-17T16:08:22.203Z,30.10
2022-08-17T16:10:50.727Z,29.90
2022-08-17T16:13:19.645Z,29.80
2022-08-17T16:15:57.074Z,29.70
2022-08-17T16:18:28.409Z,29.70
2022-08-17T16:20:56.302Z,29.60
2022-08-17T16:23:25.430Z,29.50
2022-08-17T16:25:54.462Z,29.50
2022-08-17T16:28:35.962Z,29.40
2022-08-17T16:31:05.725Z,29.40
2022-08-17T16:33:37.511Z,29.30
2022-08-17T16:36:07.312Z,29.20
2022-08-17T16:38:36.864Z,29.20
2022-08-17T16:41:05.603Z,29.00
2022-08-17T16:43:33.939Z,29.00
2022-08-17T16:46:01.812Z,28.90
2022-08-17T16:48:30.324Z,28.90
2022-08-17T16:51:03.193Z,28.80
2022-08-17T16:53:32.756Z,28.80
2022-08-17T16:56:01.840Z,28.80
2022-08-17T16:58:30.025Z,28.80
2022-08-17T17:00:59.493Z,28.80
2022-08-17T17:03:30.385Z,28.70
2022-08-17T17:06:07.103Z,28.70
2022-08-17T17:08:42.103Z,28.70
2022-08-17T17:11:24.152Z,28.70
2022-08-17T17:13:57.723Z,28.60
2022-08-17T17:16:35.706Z,28.60
2022-08-17T17:19:11.213Z,28.50
2022-08-17T17:21:45.133Z,28.50
2022-08-17T17:24:20.095Z,28.40
2022-08-17T17:27:10.338Z,28.30
2022-08-17T17:29:49.523Z,28.10
2022-08-17T17:32:21.726Z,28.00
2022-08-17T17:35:09.051Z,27.90
2022-08-17T17:37:37.175Z,27.90
2022-08-17T17:40:13.249Z,27.80
2022-08-17T17:42:44.640Z,27.60
2022-08-17T17:45:18.387Z,27.50
2022-08-17T17:47:49.115Z,27.40
2022-08-17T17:50:19.039Z,27.40
2022-08-17T17:52:54.381Z,27.40
2022-08-17T17:55:34.351Z,27.40
2022-08-17T17:58:12.475Z,27.30
2022-08-17T18:00:43.636Z,27.30
2022-08-17T18:03:26.736Z,27.20
2022-08-17T18:06:14.902Z,27.10
2022-08-17T18:08:55.570Z,26.90
2022-08-17T18:11:41.401Z,26.70
2022-08-17T18:14:22.075Z,26.60
2022-08-17T18:16:56.019Z,26.40
2022-08-17T18:19:25.952Z,26.30
2022-08-17T18:22:01.397Z,26.30
2022-08-17T18:24:31.676Z,26.20
2022-08-17T18:27:00.947Z,26.10
2022-08-17T18:29:37.922Z,26.00
2022-08-17T18:32:24.540Z,25.90
2022-08-17T18:34:54.560Z,25.90
2022-08-17T18:37:40.115Z,25.80
2022-08-17T18:40:30.091Z,25.60
2022-08-17T18:43:04.384Z,25.70
2022-08-17T18:45:39.055Z,25.70
2022-08-17T18:48:19.134Z,25.50
2022-08-17T18:50:47.602Z,25.50
2022-08-17T18:53:26.783Z,25.10
2022-08-17T18:56:27.794Z,25.10
2022-08-17T18:59:04.723Z,25.20
2022-08-17T19:01:53.724Z,25.20
2022-08-17T19:04:35.603Z,25.20
2022-08-17T19:07:06.962Z,25.20
2022-08-17T19:09:39.501Z,25.10
2022-08-17T19:12:27.119Z,24.90
2022-08-17T19:14:57.817Z,24.80
2022-08-17T19:17:32.807Z,24.70
2022-08-17T19:20:06.359Z,24.70
2022-08-17T19:22:49.583Z,24.60
2022-08-17T19:25:22.252Z,24.70
2022-08-17T19:27:57.227Z,24.60
2022-08-17T19:30:26.006Z,24.50
2022-08-17T19:32:56.912Z,24.50
2022-08-17T19:35:32.850Z,24.50
2022-08-17T19:38:12.686Z,24.50
2022-08-17T19:40:54.070Z,24.40
2022-08-17T19:43:31.362Z,24.40
2022-08-17T19:46:07.576Z,24.30
2022-08-17T19:48:46.347Z,24.10
2022-08-17T19:51:18.840Z,24.10
2022-08-17T19:54:05.321Z,23.90
2022-08-17T19:56:44.740Z,23.90
2022-08-17T19:59:18.925Z,23.80
2022-08-17T20:01:51.402Z,23.80
2022-08-17T20:04:35.056Z,23.80
2022-08-17T20:07:09.573Z,23.80
2022-08-17T20:09:40.560Z,23.70
2022-08-17T20:12:12.078Z,23.80
2022-08-17T20:14:53.844Z,23.80
2022-08-17T20:17:25.389Z,23.80
2022-08-17T20:20:05.637Z,23.80
2022-08-17T20:22:49.632Z,23.80
2022-08-17T20:25:30.074Z,23.70
2022-08-17T20:28:05.786Z,23.70
2022-08-17T20:30:38.222Z,23.70
2022-08-17T20:33:08.859Z,23.60
2022-08-17T20:36:02.695Z,23.60
2022-08-17T20:38:42.357Z,23.50
2022-08-17T20:41:14.702Z,23.60
2022-08-17T20:44:01.626Z,23.50
2022-08-17T20:46:43.109Z,23.50
2022-08-17T20:49:20.253Z,23.50
2022-08-17T20:52:02.402Z,23.50
2022-08-17T20:54:44.799Z,23.50
2022-08-17T20:57:42.330Z,23.50
2022-08-17T21:00:20.759Z,23.50
2022-08-17T21:02:50.689Z,23.50
2022-08-17T21:05:30.679Z,23.40
2022-08-17T21:08:12.920Z,23.30
2022-08-17T21:10:46.306Z,23.30
2022-08-17T21:13:38.034Z,23.30
2022-08-17T21:16:25.541Z,23.20
2022-08-17T21:19:02.363Z,23.20
2022-08-17T21:21:42.021Z,23.30
2022-08-17T21:24:27.181Z,23.30
2022-08-17T21:27:05.733Z,23.40
2022-08-17T21:29:40.377Z,23.40
2022-08-17T21:32:24.431Z,23.40
2022-08-17T21:35:22.824Z,23.20
2022-08-17T21:37:55.293Z,23.30
2022-08-17T21:40:28.150Z,23.40
2022-08-17T21:42:59.523Z,23.40
2022-08-17T21:45:29.824Z,23.50
2022-08-17T21:48:14.604Z,23.40
2022-08-17T21:50:45.183Z,23.50
2022-08-17T21:53:23.209Z,23.60
2022-08-17T21:55:53.325Z,23.60
2022-08-17T21:58:29.824Z,23.70
2022-08-17T22:01:14.345Z,23.70
2022-08-17T22:03:42.606Z,23.90
2022-08-17T22:06:26.656Z,23.90
2022-08-17T22:09:07.437Z,24.00
2022-08-17T22:11:52.548Z,24.00
2022-08-17T22:14:27.092Z,24.00
2022-08-17T22:17:21.689Z,24.10
2022-08-17T22:19:52.632Z,24.00
2022-08-17T22:22:27.404Z,24.00
2022-08-17T22:24:57.842Z,24.00
2022-08-17T22:27:51.019Z,24.00
2022-08-17T22:30:27.821Z,24.10
2022-08-17T22:32:56.112Z,24.10
2022-08-17T22:35:35.527Z,24.20
2022-08-17T22:38:27.095Z,24.20
2022-08-17T22:40:57.180Z,24.10
2022-08-17T22:43:29.629Z,24.20
2022-08-17T22:46:00.617Z,24.10
2022-08-17T22:48:31.379Z,24.00
2022-08-17T22:51:13.048Z,23.90
2022-08-17T22:54:01.686Z,23.80
2022-08-17T22:56:43.374Z,23.70
2022-08-17T22:59:20.731Z,23.60
2022-08-17T23:02:12.405Z,23.50
2022-08-17T23:04:42.626Z,23.30
2022-08-17T23:07:10.521Z,23.20
2022-08-17T23:09:38.769Z,23.20
2022-08-17T23:12:09.587Z,23.10
2022-08-17T23:14:45.629Z,23.00
2022-08-17T23:17:13.692Z,22.80
2022-08-17T23:19:41.444Z,22.70
2022-08-17T23:22:10.973Z,22.60
2022-08-17T23:24:44.224Z,22.50
2022-08-17T23:27:12.888Z,22.40
2022-08-17T23:29:41.984Z,22.30
2022-08-17T23:32:14.630Z,22.10
2022-08-17T23:34:44.858Z,21.90
2022-08-17T23:37:15.012Z,21.60
2022-08-17T23:39:44.677Z,21.50
2022-08-17T23:42:17.029Z,21.30
2022-08-17T23:44:46.138Z,21.30
2022-08-17T23:47:13.849Z,21.30
2022-08-17T23:49:41.949Z,21.20
2022-08-17T23:52:15.178Z,21.30
2022-08-17T23:54:46.380Z,21.20
2022-08-17T23:57:16.604Z,21.20
2022-08-17T23:59:46.207Z,21.10
